Time;durP1;ratioP1;P1;durP2;ratioP2;P2;SDS_P1;SDS_P2;PMS_P1;PMS_P2;Temp;Humidity;BMP_temperature;BMP_pressure;BME280_temperature;BME280_humidity;BME280_pressure;Samples;Min_cycle;Max_cycle;Signal;HPM_P1;HPM_P2
2021/10/30 00:01:49;;;;;;;8.47;6.00;;;13.10;1.00;;;;;;5073855;28;20305;-62
2021/10/30 00:04:16;;;;;;;10.63;5.67;;;13.10;1.00;;;;;;5072359;28;20215;-62
2021/10/30 00:06:43;;;;;;;9.73;6.47;;;13.10;1.00;;;;;;5073198;28;20209;-62
2021/10/30 00:09:10;;;;;;;10.03;5.73;;;13.10;1.00;;;;;;5073206;28;20228;-62
2021/10/30 00:11:36;;;;;;;9.83;6.40;;;13.00;1.00;;;;;;5073844;28;20236;-62
2021/10/30 00:14:04;;;;;;;7.50;5.80;;;13.00;1.00;;;;;;5073600;28;20201;-62
2021/10/30 00:16:31;;;;;;;11.13;6.50;;;12.90;1.00;;;;;;5072682;28;20718;-62
2021/10/30 00:18:58;;;;;;;9.43;5.50;;;12.90;1.00;;;;;;5072455;28;20203;-62
2021/10/30 00:21:25;;;;;;;11.30;6.20;;;12.80;1.00;;;;;;5072588;28;20221;-62
2021/10/30 00:23:51;;;;;;;8.53;6.13;;;12.70;1.00;;;;;;5073679;28;20689;-62
2021/10/30 00:26:18;;;;;;;8.03;5.60;;;12.70;1.00;;;;;;5073028;28;20677;-62
2021/10/30 00:28:45;;;;;;;9.67;6.90;;;12.70;1.00;;;;;;5073396;28;20676;-62
2021/10/30 00:31:13;;;;;;;8.93;6.30;;;12.70;1.00;;;;;;5073430;28;20368;-62
2021/10/30 00:33:40;;;;;;;8.97;6.37;;;12.70;1.00;;;;;;5073499;28;20209;-62
2021/10/30 00:36:08;;;;;;;7.10;5.60;;;12.70;1.00;;;;;;5072373;28;20717;-62
2021/10/30 00:38:35;;;;;;;9.63;6.03;;;12.70;1.00;;;;;;5072695;28;20208;-62
2021/10/30 00:41:04;;;;;;;8.53;5.80;;;12.70;1.00;;;;;;5072307;28;20196;-62
2021/10/30 00:43:31;;;;;;;8.83;6.20;;;12.70;1.00;;;;;;5072851;28;20680;-62
2021/10/30 00:45:58;;;;;;;7.97;6.00;;;12.70;1.00;;;;;;5072836;28;20222;-62
2021/10/30 00:48:26;;;;;;;8.27;6.03;;;12.70;1.00;;;;;;5072456;28;20204;-62
2021/10/30 00:50:55;;;;;;;10.50;6.63;;;12.70;1.00;;;;;;5072001;28;20227;-62
2021/10/30 00:53:28;;;;;;;7.83;5.97;;;12.60;1.00;;;;;;5072867;28;20276;-62
2021/10/30 00:55:57;;;;;;;9.43;5.80;;;12.70;1.00;;;;;;5072543;28;20208;-62
2021/10/30 00:58:24;;;;;;;8.43;5.87;;;12.70;1.00;;;;;;5072943;28;20208;-62
2021/10/30 01:00:52;;;;;;;9.83;6.40;;;12.70;1.00;;;;;;5072624;28;20250;-62
2021/10/30 01:03:18;;;;;;;8.30;6.43;;;12.60;1.00;;;;;;5072585;28;20266;-62
2021/10/30 01:05:46;;;;;;;10.90;5.93;;;12.50;1.00;;;;;;5072276;28;20298;-62
2021/10/30 01:08:13;;;;;;;8.37;5.80;;;12.50;1.00;;;;;;5072149;28;20219;-62
2021/10/30 01:10:41;;;;;;;8.10;5.90;;;12.50;1.00;;;;;;5072215;28;20347;-62
2021/10/30 01:13:07;;;;;;;10.33;6.20;;;12.60;1.00;;;;;;5071627;28;20260;-62
2021/10/30 01:15:34;;;;;;;9.00;6.17;;;12.50;1.00;;;;;;5072440;28;20316;-62
2021/10/30 01:18:01;;;;;;;9.87;6.13;;;12.50;1.00;;;;;;5072361;28;20745;-62
2021/10/30 01:20:29;;;;;;;7.43;5.97;;;12.40;1.00;;;;;;5071117;28;20235;-62
2021/10/30 01:22:59;;;;;;;10.87;5.67;;;12.40;1.00;;;;;;5071946;28;20227;-62
2021/10/30 01:25:26;;;;;;;8.50;6.27;;;12.30;1.00;;;;;;5071204;28;20208;-62
2021/10/30 01:27:54;;;;;;;9.53;5.67;;;12.40;1.00;;;;;;5072198;28;20205;-62
2021/10/30 01:30:23;;;;;;;8.87;5.97;;;12.40;1.00;;;;;;5071747;28;20211;-62
2021/10/30 01:32:54;;;;;;;10.23;5.70;;;12.30;1.00;;;;;;5071957;28;20237;-62
2021/10/30 01:35:26;;;;;;;8.77;5.73;;;12.30;1.00;;;;;;5071393;28;20253;-62
2021/10/30 01:37:55;;;;;;;9.70;6.30;;;12.30;1.00;;;;;;5071182;28;20255;-62
2021/10/30 01:40:22;;;;;;;11.97;6.07;;;12.30;1.00;;;;;;5072235;28;20299;-62
2021/10/30 01:42:57;;;;;;;7.20;5.43;;;12.30;1.00;;;;;;5072204;28;20221;-62
2021/10/30 01:45:24;;;;;;;10.57;5.40;;;12.30;1.00;;;;;;5071686;28;20303;-62
2021/10/30 01:47:51;;;;;;;9.83;5.60;;;12.30;1.00;;;;;;5071050;28;20301;-62
2021/10/30 01:50:18;;;;;;;6.90;5.13;;;12.40;1.00;;;;;;5071595;28;20234;-62
2021/10/30 01:52:45;;;;;;;7.10;4.97;;;12.40;1.00;;;;;;5072050;28;20233;-62
2021/10/30 01:55:15;;;;;;;8.40;6.00;;;12.40;1.00;;;;;;5071823;28;20218;-62
2021/10/30 01:57:42;;;;;;;9.40;5.23;;;12.40;1.00;;;;;;5071868;28;20218;-62
2021/10/30 02:00:10;;;;;;;8.07;5.57;;;12.50;1.00;;;;;;5072002;28;20209;-62
2021/10/30 02:02:37;;;;;;;6.73;5.33;;;12.50;1.00;;;;;;5071578;28;20224;-62
2021/10/30 02:05:04;;;;;;;9.90;5.10;;;12.50;1.00;;;;;;5070668;28;20215;-62
2021/10/30 02:07:31;;;;;;;8.53;4.43;;;12.50;1.00;;;;;;5071035;28;20209;-62
2021/10/30 02:09:58;;;;;;;8.40;4.73;;;12.50;1.00;;;;;;5071161;28;20215;-62
2021/10/30 02:12:26;;;;;;;7.30;4.93;;;12.50;1.00;;;;;;5070895;28;20229;-62
2021/10/30 02:14:52;;;;;;;8.53;4.53;;;12.50;1.00;;;;;;5071124;28;20209;-62
2021/10/30 02:17:20;;;;;;;8.10;4.63;;;12.50;1.00;;;;;;5072104;28;20242;-62
2021/10/30 02:19:47;;;;;;;8.17;5.27;;;12.50;1.00;;;;;;5071023;28;20213;-62
2021/10/30 02:22:14;;;;;;;6.10;4.90;;;12.50;1.00;;;;;;5070816;28;20761;-62
2021/10/30 02:24:40;;;;;;;7.10;5.00;;;12.50;1.00;;;;;;5071241;28;20199;-62
2021/10/30 02:27:07;;;;;;;7.17;5.03;;;12.60;1.00;;;;;;5071149;28;20212;-62
2021/10/30 02:29:35;;;;;;;7.00;4.50;;;12.60;1.00;;;;;;5071241;28;20212;-62
2021/10/30 02:32:02;;;;;;;8.27;4.93;;;12.50;1.00;;;;;;5070454;28;20732;-62
2021/10/30 02:34:29;;;;;;;7.53;4.83;;;12.50;1.00;;;;;;5071640;28;20225;-62
2021/10/30 02:36:56;;;;;;;9.17;5.10;;;12.50;1.00;;;;;;5070551;28;20554;-62
2021/10/30 02:39:23;;;;;;;8.00;4.80;;;12.50;1.00;;;;;;5071643;28;20265;-62
2021/10/30 02:41:50;;;;;;;6.90;4.57;;;12.50;1.00;;;;;;5072171;28;20273;-62
2021/10/30 02:44:16;;;;;;;5.43;4.60;;;12.50;1.00;;;;;;5074528;28;20204;-62
2021/10/30 02:46:45;;;;;;;9.73;4.87;;;12.50;1.00;;;;;;5074822;28;20257;-60
2021/10/30 02:49:12;;;;;;;6.47;4.90;;;12.50;1.00;;;;;;5075133;28;20205;-60
2021/10/30 02:51:38;;;;;;;7.43;4.43;;;12.50;1.00;;;;;;5074838;28;20702;-62
2021/10/30 02:54:05;;;;;;;8.17;5.07;;;12.60;1.00;;;;;;5074117;28;20594;-62
2021/10/30 02:56:32;;;;;;;6.80;5.07;;;12.60;1.00;;;;;;5074920;28;20206;-62
2021/10/30 02:58:58;;;;;;;6.83;4.67;;;12.60;1.00;;;;;;5074395;28;20205;-62
2021/10/30 03:01:25;;;;;;;7.67;4.97;;;12.60;1.00;;;;;;5075220;28;20239;-62
2021/10/30 03:03:53;;;;;;;8.17;4.83;;;12.60;1.00;;;;;;5073874;28;20216;-62
2021/10/30 03:06:22;;;;;;;6.37;4.37;;;12.60;1.00;;;;;;5074713;28;20285;-62
2021/10/30 03:08:49;;;;;;;7.57;5.03;;;12.60;1.00;;;;;;5075050;28;20244;-62
2021/10/30 03:11:17;;;;;;;7.20;4.73;;;12.60;1.00;;;;;;5074515;28;20258;-62
2021/10/30 03:13:44;;;;;;;5.07;4.57;;;12.60;1.00;;;;;;5075217;28;20211;-62
2021/10/30 03:16:10;;;;;;;8.80;4.83;;;12.60;1.00;;;;;;5074444;28;20211;-62
2021/10/30 03:18:37;;;;;;;5.63;4.53;;;12.50;1.00;;;;;;5074832;28;20671;-62
2021/10/30 03:21:06;;;;;;;6.20;4.70;;;12.60;1.00;;;;;;5074685;28;20289;-62
2021/10/30 03:23:33;;;;;;;8.73;4.70;;;12.50;1.00;;;;;;5074806;28;20215;-62
2021/10/30 03:26:00;;;;;;;6.83;4.63;;;12.50;1.00;;;;;;5073304;28;20215;-62
2021/10/30 03:28:27;;;;;;;6.07;4.40;;;12.50;1.00;;;;;;5073302;28;20584;-62
2021/10/30 03:30:53;;;;;;;5.43;4.37;;;12.50;1.00;;;;;;5073756;28;20673;-62
2021/10/30 03:33:20;;;;;;;6.37;4.47;;;12.60;1.00;;;;;;5074295;28;20235;-62
2021/10/30 03:35:47;;;;;;;7.27;4.47;;;12.60;1.00;;;;;;5073264;28;20208;-62
2021/10/30 03:38:15;;;;;;;6.50;4.60;;;12.60;1.00;;;;;;5073658;28;20254;-62
2021/10/30 03:40:42;;;;;;;6.53;4.73;;;12.60;1.00;;;;;;5074154;28;20215;-62
2021/10/30 03:43:08;;;;;;;7.07;4.60;;;12.60;1.00;;;;;;5073897;28;20229;-62
2021/10/30 03:45:35;;;;;;;6.70;4.70;;;12.50;1.00;;;;;;5073485;28;20207;-62
2021/10/30 03:48:03;;;;;;;6.77;4.77;;;12.60;1.00;;;;;;5073172;28;20205;-62
2021/10/30 03:50:30;;;;;;;5.57;4.30;;;12.60;1.00;;;;;;5074103;28;20258;-62
2021/10/30 03:52:57;;;;;;;8.10;4.23;;;12.60;1.00;;;;;;5072440;28;20642;-62
2021/10/30 03:55:25;;;;;;;7.53;4.53;;;12.60;1.00;;;;;;5073426;28;20212;-62
2021/10/30 03:57:52;;;;;;;6.00;4.87;;;12.60;1.00;;;;;;5074200;28;20295;-62
2021/10/30 04:00:19;;;;;;;5.90;4.50;;;12.60;1.00;;;;;;5073732;28;20616;-62
2021/10/30 04:02:47;;;;;;;6.40;4.83;;;12.60;1.00;;;;;;5074081;28;20620;-62
2021/10/30 04:05:14;;;;;;;7.80;4.40;;;12.60;1.00;;;;;;5072672;28;20249;-62
2021/10/30 04:07:40;;;;;;;6.97;4.43;;;12.60;1.00;;;;;;5072756;28;20239;-62
2021/10/30 04:10:07;;;;;;;7.37;4.23;;;12.70;1.00;;;;;;5073900;28;20213;-62
2021/10/30 04:12:36;;;;;;;6.13;4.23;;;12.70;1.00;;;;;;5073611;28;20689;-62
2021/10/30 04:15:03;;;;;;;7.17;4.87;;;12.70;1.00;;;;;;5072681;28;20206;-62
2021/10/30 04:17:30;;;;;;;7.90;4.93;;;12.70;1.00;;;;;;5073733;28;20216;-62
2021/10/30 04:19:56;;;;;;;7.57;4.70;;;12.70;1.00;;;;;;5073754;28;20208;-62
2021/10/30 04:22:23;;;;;;;6.53;5.40;;;12.70;1.00;;;;;;5073878;28;20281;-62
2021/10/30 04:24:50;;;;;;;5.03;4.53;;;12.70;1.00;;;;;;5073384;28;20282;-62
2021/10/30 04:27:17;;;;;;;7.47;5.10;;;12.70;1.00;;;;;;5073563;28;20280;-62
2021/10/30 04:29:45;;;;;;;5.97;4.70;;;12.70;1.00;;;;;;5073305;28;20233;-62
2021/10/30 04:32:14;;;;;;;6.07;4.90;;;12.70;1.00;;;;;;5073368;28;20233;-62
2021/10/30 04:34:45;;;;;;;7.73;5.00;;;12.60;1.00;;;;;;5072739;28;20262;-62
2021/10/30 04:37:16;;;;;;;7.43;5.23;;;12.60;1.00;;;;;;5073465;28;20212;-62
2021/10/30 04:39:44;;;;;;;7.20;5.20;;;12.50;1.00;;;;;;5073386;28;20797;-61
2021/10/30 04:42:11;;;;;;;8.83;5.90;;;12.40;1.00;;;;;;5073288;28;20229;-61
2021/10/30 04:44:37;;;;;;;7.07;5.43;;;12.30;1.00;;;;;;5072903;28;20208;-61
2021/10/30 04:47:06;;;;;;;7.53;5.80;;;12.30;1.00;;;;;;5072618;28;20225;-61
2021/10/30 04:49:35;;;;;;;7.70;5.60;;;12.20;1.00;;;;;;5073356;28;20209;-61
2021/10/30 04:52:02;;;;;;;10.13;5.63;;;12.10;1.00;;;;;;5072705;28;20781;-62
2021/10/30 04:54:28;;;;;;;6.40;5.10;;;12.10;1.00;;;;;;5073058;28;20210;-61
2021/10/30 04:56:55;;;;;;;8.47;5.53;;;12.00;1.00;;;;;;5072488;28;20576;-61
2021/10/30 04:59:22;;;;;;;7.80;5.53;;;12.10;1.00;;;;;;5072884;28;20204;-61
2021/10/30 05:01:49;;;;;;;7.60;5.70;;;12.00;1.00;;;;;;5071667;28;20233;-61
2021/10/30 05:04:17;;;;;;;7.33;5.67;;;12.00;1.00;;;;;;5072432;28;20219;-61
2021/10/30 05:06:43;;;;;;;7.67;5.07;;;11.90;1.00;;;;;;5070847;28;20576;-61
2021/10/30 05:09:11;;;;;;;9.00;5.70;;;11.90;1.00;;;;;;5072703;28;20216;-62
2021/10/30 05:11:37;;;;;;;8.47;6.10;;;11.90;1.00;;;;;;5072716;28;20274;-62
2021/10/30 05:14:04;;;;;;;7.67;5.40;;;11.80;1.00;;;;;;5072185;28;20243;-61
2021/10/30 05:16:30;;;;;;;7.87;6.00;;;11.80;1.00;;;;;;5072464;28;20258;-62
2021/10/30 05:18:57;;;;;;;7.60;5.43;;;11.70;1.00;;;;;;5072722;28;20204;-62
2021/10/30 05:21:25;;;;;;;7.70;5.23;;;11.70;1.00;;;;;;5072323;28;20552;-62
2021/10/30 05:23:54;;;;;;;9.23;5.77;;;11.70;1.00;;;;;;5071701;28;20201;-61
2021/10/30 05:26:21;;;;;;;9.37;5.80;;;11.70;1.00;;;;;;5071144;28;20205;-62
2021/10/30 05:28:48;;;;;;;7.07;5.90;;;11.70;1.00;;;;;;5072059;28;20263;-62
2021/10/30 05:31:14;;;;;;;8.60;6.17;;;11.70;1.00;;;;;;5071842;28;20205;-62
2021/10/30 05:33:41;;;;;;;9.10;6.20;;;11.60;1.00;;;;;;5071985;28;20224;-62
2021/10/30 05:36:10;;;;;;;7.73;5.70;;;11.60;1.00;;;;;;5070903;28;20201;-61
2021/10/30 05:38:44;;;;;;;7.33;6.43;;;11.60;1.00;;;;;;5071763;28;20744;-62
2021/10/30 05:41:11;;;;;;;9.83;6.37;;;11.50;1.00;;;;;;5072020;28;20214;-61
2021/10/30 05:43:39;;;;;;;8.37;6.17;;;11.50;1.00;;;;;;5072140;28;20234;-61
2021/10/30 05:46:06;;;;;;;10.37;5.93;;;11.50;1.00;;;;;;5071319;28;20212;-62
2021/10/30 05:48:33;;;;;;;8.10;5.97;;;11.40;1.00;;;;;;5070785;28;20299;-62
2021/10/30 05:51:00;;;;;;;10.63;6.50;;;11.50;1.00;;;;;;5071015;28;20282;-61
2021/10/30 05:53:27;;;;;;;8.47;6.10;;;11.50;1.00;;;;;;5070859;28;20221;-61
2021/10/30 05:55:55;;;;;;;7.70;6.43;;;11.50;1.00;;;;;;5070193;28;20229;-62
2021/10/30 05:58:22;;;;;;;9.53;5.90;;;11.50;1.00;;;;;;5070378;28;20260;-62
2021/10/30 06:00:48;;;;;;;7.73;5.97;;;11.50;1.00;;;;;;5068563;28;20197;-62
2021/10/30 06:03:15;;;;;;;7.83;5.97;;;11.50;1.00;;;;;;5070733;28;20262;-61
2021/10/30 06:05:42;;;;;;;7.00;5.57;;;11.50;1.00;;;;;;5070356;28;20213;-61
2021/10/30 06:08:08;;;;;;;8.70;6.17;;;11.50;4.90;;;;;;5071808;28;20251;-62
2021/10/30 06:10:35;;;;;;;8.23;6.00;;;11.50;4.80;;;;;;5071104;28;20239;-62
2021/10/30 06:13:03;;;;;;;8.03;6.03;;;11.50;20.60;;;;;;5071601;28;20235;-61
2021/10/30 06:15:30;;;;;;;7.47;5.70;;;11.50;44.30;;;;;;5070652;28;20809;-61
2021/10/30 06:17:56;;;;;;;9.43;6.30;;;11.50;91.30;;;;;;5071419;28;20576;-61
2021/10/30 06:20:23;;;;;;;7.80;6.00;;;11.50;97.90;;;;;;5071423;28;20727;-61
2021/10/30 06:22:50;;;;;;;8.30;6.00;;;11.50;99.90;;;;;;5071269;28;20282;-61
2021/10/30 06:25:16;;;;;;;7.53;6.03;;;11.60;99.90;;;;;;5071510;28;20227;-62
2021/10/30 06:27:44;;;;;;;8.23;5.80;;;11.60;99.90;;;;;;5071413;28;20205;-61
2021/10/30 06:30:13;;;;;;;7.83;6.13;;;11.60;99.90;;;;;;5070741;28;20714;-62
2021/10/30 06:32:40;;;;;;;9.23;5.40;;;11.60;99.90;;;;;;5070069;28;20233;-62
2021/10/30 06:35:09;;;;;;;7.20;5.53;;;11.50;99.90;;;;;;5071075;28;20727;-62
2021/10/30 06:37:38;;;;;;;9.43;5.87;;;11.50;99.90;;;;;;5070438;28;20205;-62
2021/10/30 06:40:06;;;;;;;9.53;5.97;;;11.50;99.90;;;;;;5071328;28;20424;-62
2021/10/30 06:42:33;;;;;;;9.57;5.90;;;11.50;99.90;;;;;;5070303;28;20271;-62
2021/10/30 06:45:00;;;;;;;10.53;6.10;;;11.50;99.90;;;;;;5070997;28;20209;-62
2021/10/30 06:47:28;;;;;;;8.67;6.43;;;11.40;99.90;;;;;;5070538;28;20205;-62
2021/10/30 06:49:57;;;;;;;9.53;6.60;;;11.40;99.90;;;;;;5070647;28;20205;-62
2021/10/30 06:52:24;;;;;;;12.00;6.53;;;11.40;99.90;;;;;;5070651;28;20597;-62
2021/10/30 06:54:51;;;;;;;7.27;6.20;;;11.30;1.00;;;;;;5070996;28;20201;-62
2021/10/30 06:57:18;;;;;;;8.43;5.90;;;11.40;1.00;;;;;;5070622;28;20201;-62
2021/10/30 06:59:45;;;;;;;8.53;6.37;;;11.40;1.00;;;;;;5070358;28;20201;-62
2021/10/30 07:02:12;;;;;;;9.57;5.93;;;11.40;99.90;;;;;;5071041;28;20229;-62
2021/10/30 07:04:40;;;;;;;10.97;6.03;;;11.40;99.90;;;;;;5070505;28;20213;-62
2021/10/30 07:07:07;;;;;;;9.07;6.23;;;11.40;1.00;;;;;;5071083;28;20204;-66
2021/10/30 07:09:34;;;;;;;10.43;5.90;;;11.30;1.00;;;;;;5071267;28;20635;-61
2021/10/30 07:12:00;;;;;;;10.43;6.57;;;11.30;1.00;;;;;;5069061;28;20725;-62
2021/10/30 07:14:27;;;;;;;9.63;6.67;;;11.20;1.00;;;;;;5069400;28;20251;-62
2021/10/30 07:16:54;;;;;;;8.40;6.37;;;11.20;1.00;;;;;;5070148;28;20209;-62
2021/10/30 07:19:20;;;;;;;8.93;6.53;;;11.20;1.00;;;;;;5071169;28;20615;-61
2021/10/30 07:21:48;;;;;;;10.53;6.57;;;11.30;1.00;;;;;;5071351;28;20225;-62
2021/10/30 07:24:15;;;;;;;8.67;6.47;;;11.20;1.00;;;;;;5071271;28;20278;-62
2021/10/30 07:26:41;;;;;;;10.93;6.13;;;11.20;1.00;;;;;;5070837;28;20673;-62
2021/10/30 07:29:08;;;;;;;8.53;6.07;;;11.30;1.00;;;;;;5073039;28;20554;-62
2021/10/30 07:31:35;;;;;;;9.00;6.30;;;11.20;1.00;;;;;;5074495;28;20713;-62
2021/10/30 07:34:02;;;;;;;9.60;6.80;;;11.20;1.00;;;;;;5074782;28;20232;-62
2021/10/30 07:36:28;;;;;;;8.10;5.70;;;11.20;1.00;;;;;;5074302;28;20239;-62
2021/10/30 07:38:56;;;;;;;9.33;7.07;;;11.20;1.00;;;;;;5074736;28;20213;-61
2021/10/30 07:41:23;;;;;;;9.40;5.70;;;11.20;1.00;;;;;;5074363;28;20205;-62
2021/10/30 07:43:53;;;;;;;8.53;6.63;;;11.20;1.00;;;;;;5074493;28;20709;-61
2021/10/30 07:46:20;;;;;;;8.77;6.63;;;11.20;1.00;;;;;;5073880;28;20236;-62
2021/10/30 07:48:47;;;;;;;7.90;6.10;;;11.20;1.00;;;;;;5074625;28;20254;-61
2021/10/30 07:51:13;;;;;;;11.80;6.83;;;11.30;1.00;;;;;;5074295;28;20279;-62
2021/10/30 07:53:40;;;;;;;7.97;6.23;;;11.30;1.00;;;;;;5074319;28;20286;-61
2021/10/30 07:56:08;;;;;;;7.53;6.20;;;11.30;99.90;;;;;;5074031;28;20220;-62
2021/10/30 07:58:35;;;;;;;7.73;5.60;;;11.30;99.90;;;;;;5074289;28;20204;-63
2021/10/30 08:01:01;;;;;;;7.53;5.60;;;11.30;99.90;;;;;;5073999;28;20278;-62
2021/10/30 08:03:28;;;;;;;9.67;6.40;;;11.30;99.90;;;;;;5073882;28;20767;-62
2021/10/30 08:05:54;;;;;;;8.13;6.03;;;11.40;99.90;;;;;;5074005;28;20209;-62
2021/10/30 08:08:21;;;;;;;9.83;6.10;;;11.40;99.90;;;;;;5074070;28;20253;-62
2021/10/30 08:10:48;;;;;;;7.10;5.30;;;11.40;99.90;;;;;;5074945;28;20254;-62
2021/10/30 08:13:16;;;;;;;6.57;5.80;;;11.40;99.90;;;;;;5073613;28;20294;-62
2021/10/30 08:15:43;;;;;;;13.20;5.57;;;11.40;99.90;;;;;;5073765;28;20263;-62
2021/10/30 08:18:10;;;;;;;8.67;5.50;;;11.40;99.90;;;;;;5074017;28;20262;-62
2021/10/30 08:20:37;;;;;;;9.07;5.47;;;11.40;99.90;;;;;;5073786;28;20258;-62
2021/10/30 08:23:03;;;;;;;8.30;5.20;;;11.50;99.90;;;;;;5073624;28;20220;-62
2021/10/30 08:25:30;;;;;;;6.63;5.30;;;11.60;99.90;;;;;;5073428;28;20562;-62
2021/10/30 08:27:58;;;;;;;8.27;5.20;;;11.50;99.90;;;;;;5073495;28;20293;-62
2021/10/30 08:30:28;;;;;;;9.13;5.40;;;11.50;99.90;;;;;;5073540;28;20883;-62
2021/10/30 08:32:55;;;;;;;7.47;4.87;;;11.60;99.90;;;;;;5073906;28;20632;-62
2021/10/30 08:35:22;;;;;;;6.77;5.10;;;11.60;99.90;;;;;;5073008;28;20205;-62
2021/10/30 08:37:49;;;;;;;5.50;4.80;;;11.60;99.90;;;;;;5073136;28;20250;-62
2021/10/30 08:40:17;;;;;;;5.53;4.30;;;11.70;99.90;;;;;;5073213;28;20200;-62
2021/10/30 08:42:47;;;;;;;5.77;4.40;;;11.70;99.90;;;;;;5059936;28;20253;-64
2021/10/30 08:45:13;;;;;;;5.83;4.43;;;11.80;99.90;;;;;;5072285;28;20205;-62
2021/10/30 08:47:44;;;;;;;7.43;4.60;;;11.80;98.80;;;;;;5072806;28;20212;-63
2021/10/30 08:50:12;;;;;;;6.97;4.43;;;11.80;89.00;;;;;;5072761;28;20730;-64
2021/10/30 08:52:39;;;;;;;6.67;4.63;;;11.80;67.90;;;;;;5072187;28;20760;-64
2021/10/30 08:55:07;;;;;;;7.77;5.03;;;11.80;68.50;;;;;;5072048;28;20232;-63
2021/10/30 08:57:34;;;;;;;7.13;4.73;;;11.80;81.10;;;;;;5072534;28;20205;-64
2021/10/30 09:00:18;;;;;;;5.33;4.57;;;11.80;86.10;;;;;;5072299;28;20212;-62
2021/10/30 09:02:53;;;;;;;9.87;4.37;;;11.90;48.30;;;;;;5072143;28;20232;-62
2021/10/30 09:05:23;;;;;;;5.90;4.20;;;11.90;69.20;;;;;;5072393;28;20265;-61
2021/10/30 09:07:53;;;;;;;5.77;4.13;;;11.90;60.50;;;;;;5072574;28;20214;-61
2021/10/30 09:10:24;;;;;;;6.50;4.33;;;11.90;29.70;;;;;;5072664;28;20255;-61
2021/10/30 09:12:55;;;;;;;5.00;4.17;;;11.90;93.70;;;;;;5072291;28;20226;-58
2021/10/30 09:15:31;;;;;;;6.93;4.90;;;11.90;88.50;;;;;;5072165;28;20294;-59
2021/10/30 09:17:59;;;;;;;5.70;4.40;;;11.90;99.90;;;;;;5072397;28;20545;-62
2021/10/30 09:20:34;;;;;;;8.27;4.00;;;11.90;97.40;;;;;;5072597;28;20263;-62
2021/10/30 09:23:00;;;;;;;6.70;4.10;;;12.00;93.30;;;;;;5071828;28;20224;-63
2021/10/30 09:25:27;;;;;;;6.73;4.37;;;12.00;99.90;;;;;;5071796;28;20226;-62
2021/10/30 09:27:58;;;;;;;7.60;4.43;;;12.00;99.90;;;;;;5072067;28;20212;-62
2021/10/30 09:30:26;;;;;;;5.60;4.03;;;12.10;99.90;;;;;;5071768;28;20204;-62
2021/10/30 09:32:54;;;;;;;5.53;4.30;;;12.20;99.90;;;;;;5072005;28;20270;-63
2021/10/30 09:35:25;;;;;;;5.33;4.20;;;12.20;99.90;;;;;;5071765;28;20234;-62
2021/10/30 09:37:53;;;;;;;8.80;3.90;;;12.40;94.50;;;;;;5072034;28;20213;-61
2021/10/30 09:40:23;;;;;;;4.60;3.80;;;12.40;94.30;;;;;;5072018;28;20204;-62
2021/10/30 09:42:53;;;;;;;5.13;3.90;;;12.50;36.90;;;;;;5071445;28;20228;-62
2021/10/30 09:45:20;;;;;;;5.83;3.63;;;12.50;42.40;;;;;;5071683;28;20205;-62
2021/10/30 09:48:00;;;;;;;4.33;3.80;;;12.60;5.80;;;;;;5072076;28;20630;-62
2021/10/30 09:50:30;;;;;;;7.47;4.20;;;12.60;5.60;;;;;;5071901;28;20215;-62
2021/10/30 09:52:57;;;;;;;6.50;4.27;;;12.70;1.00;;;;;;5071030;28;20224;-62
2021/10/30 09:55:26;;;;;;;6.03;3.63;;;12.70;5.60;;;;;;5071287;28;20285;-64
2021/10/30 09:58:04;;;;;;;5.20;3.73;;;12.70;1.00;;;;;;5071858;28;20296;-65
2021/10/30 10:00:31;;;;;;;5.07;3.87;;;12.70;1.00;;;;;;5071714;28;20669;-65
2021/10/30 10:02:59;;;;;;;6.60;3.90;;;12.70;1.00;;;;;;5071219;28;20271;-63
2021/10/30 10:05:29;;;;;;;7.37;4.00;;;12.70;1.00;;;;;;5071286;28;20286;-64
2021/10/30 10:07:57;;;;;;;7.33;3.80;;;12.80;1.00;;;;;;5071372;28;20207;-63
2021/10/30 10:10:24;;;;;;;6.93;4.13;;;12.90;1.00;;;;;;5071795;28;20251;-64
2021/10/30 10:12:53;;;;;;;5.03;3.90;;;12.90;1.00;;;;;;5071508;28;20224;-63
2021/10/30 10:15:21;;;;;;;6.30;4.43;;;12.90;1.00;;;;;;5071186;28;20335;-63
2021/10/30 10:17:49;;;;;;;7.40;3.83;;;12.90;1.00;;;;;;5071669;28;20207;-64
2021/10/30 10:20:16;;;;;;;5.67;4.30;;;12.90;1.00;;;;;;5071299;28;20208;-65
2021/10/30 10:22:45;;;;;;;5.43;4.17;;;12.90;1.00;;;;;;5070942;28;20709;-68
2021/10/30 10:25:28;;;;;;;5.07;3.83;;;13.00;1.00;;;;;;5071266;28;20207;-63
2021/10/30 10:27:56;;;;;;;7.00;4.23;;;13.00;1.00;;;;;;5071821;28;20218;-63
2021/10/30 10:30:22;;;;;;;5.67;4.30;;;13.10;1.00;;;;;;5071458;28;20215;-62
2021/10/30 10:32:49;;;;;;;4.37;3.97;;;13.10;1.00;;;;;;5071115;28;20231;-62
2021/10/30 10:35:18;;;;;;;6.50;4.50;;;13.00;1.00;;;;;;5070402;28;20228;-65
2021/10/30 10:37:50;;;;;;;7.53;4.17;;;13.00;1.00;;;;;;5071067;28;20290;-66
2021/10/30 10:40:30;;;;;;;5.47;3.80;;;13.10;1.00;;;;;;5071400;28;20231;-64
2021/10/30 10:42:57;;;;;;;7.03;4.80;;;13.00;1.00;;;;;;5070995;28;20308;-64
2021/10/30 10:45:32;;;;;;;7.23;4.40;;;13.00;1.00;;;;;;5070752;28;20617;-64
2021/10/30 10:48:07;;;;;;;8.60;4.50;;;12.90;1.00;;;;;;5070986;28;20207;-62
2021/10/30 10:50:44;;;;;;;8.47;4.47;;;12.90;1.00;;;;;;5070698;28;20213;-63
2021/10/30 10:53:18;;;;;;;6.13;4.10;;;12.80;1.00;;;;;;5071211;28;20650;-64
2021/10/30 10:56:11;;;;;;;6.30;4.67;;;12.90;1.00;;;;;;5070881;28;20675;-64
2021/10/30 10:59:14;;;;;;;6.80;4.40;;;12.90;1.00;;;;;;5071279;28;20211;-64
2021/10/30 11:02:15;;;;;;;6.57;4.53;;;12.90;1.00;;;;;;5070843;28;20327;-64
2021/10/30 11:04:42;;;;;;;6.23;4.83;;;12.80;1.00;;;;;;5073395;28;20302;-64
2021/10/30 11:07:13;;;;;;;6.93;4.77;;;12.80;1.00;;;;;;5075037;28;20211;-64
2021/10/30 11:09:51;;;;;;;5.73;4.53;;;12.70;1.00;;;;;;5075418;28;20232;-64
2021/10/30 11:12:22;;;;;;;7.63;5.10;;;12.70;1.00;;;;;;5074597;28;20227;-62
2021/10/30 11:14:57;;;;;;;6.57;5.13;;;12.60;1.00;;;;;;5074179;28;20285;-62
2021/10/30 11:17:24;;;;;;;7.27;4.67;;;12.60;1.00;;;;;;5074368;28;20208;-63
2021/10/30 11:19:52;;;;;;;6.23;5.07;;;12.50;1.00;;;;;;5074715;28;20214;-63
2021/10/30 11:22:23;;;;;;;8.37;5.00;;;12.50;1.00;;;;;;5074354;28;20224;-63
2021/10/30 11:24:55;;;;;;;5.53;4.67;;;12.40;1.00;;;;;;5074024;28;20212;-62
2021/10/30 11:27:22;;;;;;;5.27;4.37;;;12.40;1.00;;;;;;5074693;28;20614;-63
2021/10/30 11:29:50;;;;;;;7.07;5.43;;;12.40;1.00;;;;;;5074454;28;20214;-63
2021/10/30 11:32:18;;;;;;;8.00;5.50;;;12.10;1.00;;;;;;5074321;28;20279;-64
2021/10/30 11:34:53;;;;;;;8.37;5.40;;;12.20;1.00;;;;;;5073904;28;20227;-67
2021/10/30 11:37:20;;;;;;;9.33;5.60;;;12.20;1.00;;;;;;5073997;28;20262;-64
2021/10/30 11:39:47;;;;;;;9.30;6.13;;;12.10;1.00;;;;;;5074513;28;20200;-64
2021/10/30 11:42:15;;;;;;;8.33;5.67;;;12.10;1.00;;;;;;5074203;28;20239;-64
2021/10/30 11:44:54;;;;;;;6.70;5.23;;;12.10;1.00;;;;;;5073688;28;20677;-62
2021/10/30 11:47:29;;;;;;;7.60;5.80;;;12.10;1.00;;;;;;5073997;28;20191;-62
2021/10/30 11:49:56;;;;;;;9.30;5.63;;;12.10;1.00;;;;;;5074011;28;20212;-63
2021/10/30 11:52:25;;;;;;;9.43;6.43;;;12.00;1.00;;;;;;5073867;28;20239;-64
2021/10/30 11:54:57;;;;;;;8.50;5.63;;;12.00;1.00;;;;;;5073696;28;20230;-63
2021/10/30 11:57:25;;;;;;;7.10;5.43;;;12.10;1.00;;;;;;5074037;28;20205;-64
2021/10/30 11:59:58;;;;;;;8.23;5.77;;;12.10;1.00;;;;;;5073840;28;20203;-66
2021/10/30 12:02:24;;;;;;;6.67;5.37;;;12.10;1.00;;;;;;5073564;28;20231;-65
2021/10/30 12:04:51;;;;;;;7.23;5.30;;;12.00;1.00;;;;;;5073091;28;20270;-65
2021/10/30 12:07:19;;;;;;;7.90;6.20;;;12.10;1.00;;;;;;5073910;28;20628;-62
2021/10/30 12:09:47;;;;;;;10.70;5.60;;;12.00;1.00;;;;;;5073778;28;20236;-60
2021/10/30 12:12:22;;;;;;;8.60;5.47;;;12.00;1.00;;;;;;5073613;28;20586;-61
2021/10/30 12:14:52;;;;;;;9.57;5.60;;;12.00;1.00;;;;;;5072565;28;20225;-61
2021/10/30 12:17:20;;;;;;;6.47;5.13;;;12.00;1.00;;;;;;5073361;28;20205;-60
2021/10/30 12:19:48;;;;;;;7.47;5.00;;;12.10;1.00;;;;;;5073617;28;20229;-60
2021/10/30 12:22:20;;;;;;;9.23;5.00;;;12.10;1.00;;;;;;5073237;28;20225;-60
2021/10/30 12:24:58;;;;;;;7.03;5.07;;;12.20;1.00;;;;;;5073153;28;20260;-60
2021/10/30 12:27:24;;;;;;;6.73;4.73;;;12.20;1.00;;;;;;5073048;28;20297;-60
2021/10/30 12:29:52;;;;;;;6.77;4.37;;;12.20;1.00;;;;;;5072812;28;20267;-60
2021/10/30 12:32:20;;;;;;;6.80;4.80;;;12.20;1.00;;;;;;5072596;28;20227;-60
2021/10/30 12:34:56;;;;;;;7.23;4.70;;;12.20;1.00;;;;;;5072693;28;20695;-60
2021/10/30 12:37:26;;;;;;;7.40;4.60;;;12.30;1.00;;;;;;5073090;28;20603;-60
2021/10/30 12:39:57;;;;;;;7.47;4.73;;;12.20;1.00;;;;;;5073038;28;20214;-60
2021/10/30 12:42:23;;;;;;;6.10;4.60;;;12.30;1.00;;;;;;5072944;28;20318;-60
2021/10/30 12:44:53;;;;;;;6.57;3.97;;;12.30;1.00;;;;;;5072418;28;20615;-60
2021/10/30 12:47:21;;;;;;;5.37;4.23;;;12.40;1.00;;;;;;5072874;28;20737;-60
2021/10/30 12:49:56;;;;;;;5.33;3.97;;;12.40;1.00;;;;;;5072787;28;20208;-60
2021/10/30 12:52:23;;;;;;;5.90;4.20;;;12.40;1.00;;;;;;5072365;28;20227;-60
2021/10/30 12:54:53;;;;;;;5.97;4.10;;;12.50;1.00;;;;;;5072405;28;20308;-60
2021/10/30 12:57:21;;;;;;;9.27;4.73;;;12.50;1.00;;;;;;5073106;28;20207;-60
2021/10/30 13:00:01;;;;;;;4.73;4.03;;;12.50;1.00;;;;;;5072817;28;20208;-60
2021/10/30 13:02:28;;;;;;;4.63;4.13;;;12.60;1.00;;;;;;5072361;28;20235;-60